Time;durP1;ratioP1;P1;durP2;ratioP2;P2;SDS_P1;SDS_P2;PMS_P1;PMS_P2;Temp;Humidity;BMP_temperature;BMP_pressure;BME280_temperature;BME280_humidity;BME280_pressure;Samples;Min_cycle;Max_cycle;Signal;HPM_P1;HPM_P2
2023/05/07 00:00:36;;;;;;;17.43;15.50;;;;;;;11.53;100.00;101805.09;5038311;28;20438;-68
2023/05/07 00:03:02;;;;;;;19.30;16.20;;;;;;;11.47;100.00;101779.78;5039153;28;20671;-68
2023/05/07 00:05:28;;;;;;;19.80;16.23;;;;;;;11.67;100.00;101795.41;5039758;28;20230;-68
2023/05/07 00:07:53;;;;;;;20.10;16.23;;;;;;;11.54;100.00;101796.00;5028474;28;20566;-68
2023/05/07 00:10:19;;;;;;;18.97;15.80;;;;;;;11.53;100.00;101781.75;5027903;28;20680;-67
2023/05/07 00:12:44;;;;;;;18.10;15.50;;;;;;;11.49;100.00;101806.50;5020146;28;20188;-67
2023/05/07 00:15:10;;;;;;;19.93;16.10;;;;;;;11.33;100.00;101769.84;5037153;28;20603;-67
2023/05/07 00:17:36;;;;;;;18.20;15.73;;;;;;;11.65;100.00;101792.06;5037420;28;20188;-67
2023/05/07 00:20:04;;;;;;;19.20;16.63;;;;;;;11.64;100.00;101776.97;5035403;28;20196;-68
2023/05/07 00:22:30;;;;;;;19.33;16.70;;;;;;;11.70;100.00;101773.53;5024185;28;20181;-68
2023/05/07 00:24:56;;;;;;;17.87;15.60;;;;;;;11.67;100.00;101790.88;5037446;28;20526;-67
2023/05/07 00:27:22;;;;;;;15.27;13.67;;;;;;;11.63;100.00;101786.03;5039541;28;20442;-67
2023/05/07 00:29:48;;;;;;;17.23;15.23;;;;;;;11.66;100.00;101780.31;5038899;28;20261;-68
2023/05/07 00:32:13;;;;;;;17.80;14.40;;;;;;;11.58;100.00;101759.72;5036056;28;20854;-68
2023/05/07 00:34:39;;;;;;;18.60;16.43;;;;;;;11.70;100.00;101768.16;5022668;28;20191;-68
2023/05/07 00:37:07;;;;;;;18.03;15.73;;;;;;;11.60;100.00;101773.81;5019685;28;20566;-68
2023/05/07 00:39:33;;;;;;;16.87;15.07;;;;;;;11.50;100.00;101759.78;5036179;28;20682;-67
2023/05/07 00:41:58;;;;;;;17.77;15.87;;;;;;;11.54;100.00;101751.19;5035700;28;20443;-67
2023/05/07 00:44:24;;;;;;;18.23;16.17;;;;;;;11.41;100.00;101731.34;5022303;28;20426;-68
2023/05/07 00:46:49;;;;;;;19.77;16.90;;;;;;;11.50;100.00;101728.38;5035670;28;20266;-67
2023/05/07 00:49:15;;;;;;;18.40;16.20;;;;;;;11.62;100.00;101752.94;5025758;28;20679;-67
2023/05/07 00:51:41;;;;;;;20.83;17.13;;;;;;;11.64;100.00;101771.59;5042737;28;20185;-68
2023/05/07 00:54:07;;;;;;;18.60;16.70;;;;;;;11.59;100.00;101776.66;5040024;28;20422;-68
2023/05/07 00:56:34;;;;;;;18.57;16.57;;;;;;;11.51;100.00;101756.94;5038641;28;21649;-68
2023/05/07 00:59:03;;;;;;;18.30;16.43;;;;;;;11.63;100.00;101748.41;5023893;28;20474;-68
2023/05/07 01:01:29;;;;;;;20.23;16.50;;;;;;;11.57;100.00;101781.38;5042299;28;20445;-68
2023/05/07 01:03:55;;;;;;;20.33;16.67;;;;;;;11.53;100.00;101784.44;5028762;28;20815;-67
2023/05/07 01:06:23;;;;;;;19.27;15.10;;;;;;;11.54;100.00;101778.06;5039470;28;20565;-68
2023/05/07 01:08:50;;;;;;;20.00;15.00;;;;;;;11.46;100.00;101801.47;5042749;28;20184;-67
2023/05/07 01:11:16;;;;;;;17.50;14.17;;;;;;;11.39;100.00;101784.41;5026531;28;21032;-68
2023/05/07 01:13:42;;;;;;;19.37;15.47;;;;;;;11.62;100.00;101808.53;5037592;28;20450;-68
2023/05/07 01:16:09;;;;;;;19.70;15.50;;;;;;;11.45;100.00;101799.78;5040827;28;20466;-67
2023/05/07 01:18:35;;;;;;;17.67;15.10;;;;;;;11.45;100.00;101794.41;5041767;28;20934;-68
2023/05/07 01:21:03;;;;;;;19.73;15.10;;;;;;;10.92;100.00;101691.50;5038078;28;20422;-67
2023/05/07 01:23:30;;;;;;;17.50;14.63;;;;;;;11.37;100.00;101776.53;5035960;28;20183;-68
2023/05/07 01:25:56;;;;;;;17.90;15.50;;;;;;;11.37;100.00;101775.69;5024874;28;20545;-68
2023/05/07 01:28:21;;;;;;;16.03;14.30;;;;;;;11.59;100.00;101806.22;5024428;28;21727;-67
2023/05/07 01:30:55;;;;;;;15.40;13.80;;;;;;;11.56;100.00;101799.34;5040899;28;20200;-68
2023/05/07 01:33:22;;;;;;;18.57;15.63;;;;;;;11.45;100.00;101789.03;5039618;28;20195;-68
2023/05/07 01:35:51;;;;;;;15.83;13.53;;;;;;;11.41;100.00;101772.47;5039696;28;20553;-68
2023/05/07 01:38:17;;;;;;;17.37;14.83;;;;;;;11.44;100.00;101776.63;5025427;28;20954;-69
2023/05/07 01:40:43;;;;;;;17.00;14.17;;;;;;;11.46;100.00;101777.31;5041176;28;20963;-68
2023/05/07 01:43:10;;;;;;;15.97;14.07;;;;;;;11.48;100.00;101781.44;5041682;28;20443;-68
2023/05/07 01:45:36;;;;;;;17.43;13.13;;;;;;;11.59;100.00;101787.41;5023338;28;20211;-68
2023/05/07 01:48:02;;;;;;;14.97;13.03;;;;;;;11.48;100.00;101780.63;5038026;28;20435;-69
2023/05/07 01:50:29;;;;;;;15.10;12.60;;;;;;;11.48;100.00;101786.00;5013211;28;20723;-66
2023/05/07 01:52:55;;;;;;;15.47;12.63;;;;;;;11.37;100.00;101771.16;5020222;28;20457;-66
2023/05/07 01:55:21;;;;;;;14.47;11.93;;;;;;;11.42;100.00;101786.72;5037697;28;20458;-66
2023/05/07 01:57:46;;;;;;;14.53;11.67;;;;;;;11.44;100.00;101774.78;5033588;28;20439;-66
2023/05/07 02:00:12;;;;;;;15.30;12.63;;;;;;;11.35;100.00;101756.25;5019662;28;20179;-67
2023/05/07 02:02:38;;;;;;;14.77;12.37;;;;;;;11.41;100.00;101783.22;5035857;28;20187;-66
2023/05/07 02:05:04;;;;;;;15.37;12.93;;;;;;;11.31;100.00;101788.84;5020374;28;20176;-67
2023/05/07 02:07:29;;;;;;;15.80;12.97;;;;;;;11.31;100.00;101799.59;5037093;28;20431;-67
2023/05/07 02:09:55;;;;;;;15.13;11.83;;;;;;;11.45;100.00;101800.63;5034724;28;20469;-66
2023/05/07 02:12:21;;;;;;;14.60;12.33;;;;;;;11.37;100.00;101775.69;5029026;28;20195;-66
2023/05/07 02:14:46;;;;;;;16.07;12.90;;;;;;;11.27;100.00;101763.34;5033075;28;20238;-66
2023/05/07 02:17:12;;;;;;;16.73;13.80;;;;;;;11.60;100.00;101787.25;5013399;28;20470;-67
2023/05/07 02:19:37;;;;;;;14.60;12.20;;;;;;;11.45;100.00;101781.81;5034788;28;20180;-67
2023/05/07 02:22:03;;;;;;;16.10;12.83;;;;;;;11.37;100.00;101763.09;5029218;28;20191;-67
2023/05/07 02:24:28;;;;;;;14.67;11.53;;;;;;;11.31;100.00;101758.44;5031803;28;20192;-67
2023/05/07 02:26:54;;;;;;;16.17;13.13;;;;;;;11.23;100.00;101734.34;5033637;28;20226;-67
2023/05/07 02:29:19;;;;;;;15.17;12.83;;;;;;;11.40;100.00;101776.19;5019069;28;20626;-67
2023/05/07 02:31:45;;;;;;;15.10;12.63;;;;;;;11.38;100.00;101770.13;5031888;28;20226;-66
2023/05/07 02:34:10;;;;;;;16.40;13.60;;;;;;;11.37;100.00;101776.53;5031773;28;20668;-67
2023/05/07 02:36:36;;;;;;;17.10;13.20;;;;;;;11.34;100.00;101771.53;5035659;28;20308;-67
2023/05/07 02:39:02;;;;;;;19.60;14.00;;;;;;;11.34;100.00;101776.91;5031468;28;20582;-66
2023/05/07 02:41:28;;;;;;;21.20;13.13;;;;;;;11.14;100.00;101749.72;5017386;28;20184;-67
2023/05/07 02:43:53;;;;;;;15.37;13.30;;;;;;;11.40;100.00;101775.31;5034031;28;20492;-67
2023/05/07 02:46:19;;;;;;;20.77;15.20;;;;;;;11.28;100.00;101770.41;5017615;28;20200;-67
2023/05/07 02:48:44;;;;;;;16.47;13.80;;;;;;;11.01;100.00;101750.28;5031687;28;20242;-66
2023/05/07 02:51:10;;;;;;;19.40;15.57;;;;;;;11.32;100.00;101784.28;5031308;28;20203;-66
2023/05/07 02:53:35;;;;;;;20.17;15.37;;;;;;;11.16;100.00;101754.88;5031083;28;20243;-67
2023/05/07 02:56:01;;;;;;;26.83;15.60;;;;;;;11.23;100.00;101753.16;5020957;28;20215;-68
2023/05/07 02:58:27;;;;;;;18.30;14.43;;;;;;;11.44;100.00;101777.47;5036112;28;20306;-67
2023/05/07 03:00:54;;;;;;;18.73;14.50;;;;;;;11.42;100.00;101765.22;5023648;28;20488;-68
2023/05/07 03:03:19;;;;;;;21.57;16.33;;;;;;;11.39;100.00;101770.97;5020354;28;20593;-67
2023/05/07 03:05:45;;;;;;;19.90;14.23;;;;;;;11.28;100.00;101782.97;5034233;28;20490;-67
2023/05/07 03:08:10;;;;;;;18.63;15.07;;;;;;;11.08;100.00;101753.13;5036402;28;20195;-67
2023/05/07 03:10:36;;;;;;;17.87;14.60;;;;;;;11.23;100.00;101764.72;5021054;28;20253;-67
2023/05/07 03:13:03;;;;;;;17.67;14.40;;;;;;;11.36;100.00;101768.66;5037976;28;20559;-67
2023/05/07 03:15:28;;;;;;;16.93;14.20;;;;;;;11.34;100.00;101767.97;5041156;28;20454;-68
2023/05/07 03:17:54;;;;;;;20.17;15.30;;;;;;;11.26;100.00;101758.16;5020359;28;20446;-67
2023/05/07 03:20:19;;;;;;;18.20;14.03;;;;;;;11.07;100.00;101752.25;5026136;28;20186;-67
2023/05/07 03:22:45;;;;;;;16.70;13.83;;;;;;;11.14;100.00;101760.44;5038605;28;20196;-67
2023/05/07 03:25:10;;;;;;;15.90;14.20;;;;;;;11.19;100.00;101766.09;5038206;28;20179;-67
2023/05/07 03:27:36;;;;;;;18.10;15.07;;;;;;;11.25;100.00;101764.53;5037495;28;20176;-67
2023/05/07 03:30:02;;;;;;;22.43;13.37;;;;;;;11.09;100.00;101758.28;5038642;28;20754;-67
2023/05/07 03:32:27;;;;;;;19.40;14.63;;;;;;;11.17;100.00;101757.41;5037101;28;20262;-67
2023/05/07 03:34:53;;;;;;;18.27;14.27;;;;;;;11.09;100.00;101741.34;5040678;28;20714;-68
2023/05/07 03:37:19;;;;;;;16.77;13.50;;;;;;;10.90;100.00;101731.91;5025270;28;20195;-69
2023/05/07 03:39:47;;;;;;;17.37;14.53;;;;;;;10.93;100.00;101765.63;5043763;28;20233;-68
2023/05/07 03:42:13;;;;;;;15.67;12.90;;;;;;;10.92;100.00;101740.63;5042039;28;20184;-68
2023/05/07 03:44:39;;;;;;;17.20;14.50;;;;;;;10.96;100.00;101731.19;5042706;28;20457;-69
2023/05/07 03:47:05;;;;;;;16.60;14.27;;;;;;;10.83;100.00;101725.59;5026144;28;21117;-68
2023/05/07 03:49:41;;;;;;;17.67;14.00;;;;;;;10.53;100.00;101679.00;5029066;28;20204;-69
2023/05/07 03:52:09;;;;;;;15.40;13.80;;;;;;;10.94;100.00;101760.09;5044546;28;20938;-68
2023/05/07 03:54:34;;;;;;;15.50;13.87;;;;;;;10.64;100.00;101726.91;5042857;28;20434;-67
2023/05/07 03:57:00;;;;;;;15.07;13.40;;;;;;;10.51;100.00;101706.03;5042065;28;20434;-69
2023/05/07 03:59:28;;;;;;;15.50;13.80;;;;;;;10.27;100.00;101711.50;5041085;28;20245;-68
2023/05/07 04:01:54;;;;;;;15.60;12.57;;;;;;;10.24;100.00;101701.09;5020112;28;20215;-68
2023/05/07 04:04:21;;;;;;;16.37;13.10;;;;;;;9.96;100.00;101664.06;5027007;28;20464;-69
2023/05/07 04:06:46;;;;;;;14.23;12.70;;;;;;;10.74;100.00;101783.03;5042623;28;20220;-68
2023/05/07 04:09:15;;;;;;;13.87;12.47;;;;;;;10.37;100.00;101725.56;5042350;28;20471;-69
2023/05/07 04:11:40;;;;;;;13.33;12.00;;;;;;;10.67;100.00;101771.31;5028809;28;20195;-68
2023/05/07 04:14:06;;;;;;;14.00;12.33;;;;;;;10.54;100.00;101756.63;5041288;28;20495;-68
2023/05/07 04:16:32;;;;;;;13.50;12.20;;;;;;;10.29;100.00;101714.88;5020201;28;20208;-67
2023/05/07 04:19:00;;;;;;;14.47;12.47;;;;;;;10.79;100.00;101800.28;5024858;28;20531;-69
2023/05/07 04:21:26;;;;;;;14.73;12.50;;;;;;;10.50;100.00;101739.25;5023645;28;20273;-68
2023/05/07 04:23:52;;;;;;;14.00;12.60;;;;;;;10.78;100.00;101795.91;5039727;28;20446;-68
2023/05/07 04:26:17;;;;;;;13.87;12.47;;;;;;;10.57;100.00;101777.75;5027719;28;20560;-67
2023/05/07 04:28:43;;;;;;;15.40;12.87;;;;;;;10.65;100.00;101763.47;5039349;28;20632;-69
2023/05/07 04:31:12;;;;;;;14.90;13.40;;;;;;;10.35;100.00;101765.09;5037553;28;20318;-69
2023/05/07 04:33:37;;;;;;;13.57;12.17;;;;;;;10.76;100.00;101810.50;5032813;28;20195;-68
2023/05/07 04:36:03;;;;;;;13.00;11.50;;;;;;;10.51;100.00;101775.78;5034378;28;20466;-68
2023/05/07 04:38:30;;;;;;;12.93;11.33;;;;;;;10.57;100.00;101758.97;5035756;28;20250;-69
2023/05/07 04:40:56;;;;;;;12.70;11.40;;;;;;;10.84;100.00;101797.03;5039536;28;20427;-68
2023/05/07 04:43:22;;;;;;;14.40;12.13;;;;;;;10.52;100.00;101766.69;5041498;28;20888;-70
2023/05/07 04:46:10;;;;;;;13.20;11.90;;;;;;;10.24;100.00;101709.16;5023438;28;20542;-68
2023/05/07 04:48:36;;;;;;;12.10;11.00;;;;;;;10.84;100.00;101803.25;5038970;28;20176;-68
2023/05/07 04:51:01;;;;;;;13.30;11.90;;;;;;;10.21;100.00;101733.63;5039126;28;20869;-67
2023/05/07 04:53:27;;;;;;;16.10;13.87;;;;;;;10.55;100.00;101784.28;5039508;28;20208;-67
2023/05/07 04:55:57;;;;;;;14.07;12.57;;;;;;;10.27;100.00;101762.47;5025337;28;20217;-69
2023/05/07 04:58:25;;;;;;;15.63;14.13;;;;;;;10.47;100.00;101801.28;5028022;28;20175;-69
2023/05/07 05:00:50;;;;;;;15.17;13.07;;;;;;;10.31;100.00;101793.28;5041048;28;20428;-68
2023/05/07 05:03:18;;;;;;;14.37;12.87;;;;;;;10.18;100.00;101738.34;5040215;28;20435;-70
2023/05/07 05:05:49;;;;;;;13.87;12.57;;;;;;;10.50;100.00;101792.88;5027433;28;20195;-68
2023/05/07 05:08:15;;;;;;;15.40;13.67;;;;;;;10.67;100.00;101835.72;5039652;28;20856;-68
2023/05/07 05:10:41;;;;;;;15.17;13.67;;;;;;;10.21;100.00;101769.31;5023215;28;20517;-67
2023/05/07 05:13:07;;;;;;;13.20;11.90;;;;;;;10.26;100.00;101777.69;5030167;28;20728;-68
2023/05/07 05:15:33;;;;;;;14.97;13.17;;;;;;;10.59;100.00;101832.06;5041166;28;20443;-68
2023/05/07 05:17:59;;;;;;;14.20;12.80;;;;;;;10.68;100.00;101830.19;5027875;28;20529;-69
2023/05/07 05:20:24;;;;;;;18.77;14.50;;;;;;;10.17;100.00;101763.47;5039379;28;20199;-68
2023/05/07 05:22:49;;;;;;;14.57;13.07;;;;;;;10.58;100.00;101800.88;5026112;28;20826;-69
2023/05/07 05:25:15;;;;;;;16.60;14.90;;;;;;;10.45;100.00;101795.25;5039468;28;20530;-67
2023/05/07 05:27:41;;;;;;;17.03;14.40;;;;;;;10.22;100.00;101794.31;5040053;28;20180;-68
2023/05/07 05:30:06;;;;;;;15.43;13.73;;;;;;;10.76;100.00;101845.41;5028421;28;20204;-68
2023/05/07 05:32:32;;;;;;;14.67;13.17;;;;;;;10.46;100.00;101818.38;5039230;28;20187;-68
2023/05/07 05:34:57;;;;;;;15.80;13.03;;;;;;;10.58;100.00;101829.56;5024235;28;21625;-69
2023/05/07 05:37:23;;;;;;;15.43;13.23;;;;;;;10.36;100.00;101805.19;5040388;28;20195;-69
2023/05/07 05:39:49;;;;;;;13.60;12.10;;;;;;;10.57;100.00;101819.84;5039254;28;20306;-69
2023/05/07 05:42:14;;;;;;;14.97;13.43;;;;;;;9.99;100.00;101760.19;5020172;28;20294;-68
2023/05/07 05:44:47;;;;;;;15.00;13.50;;;;;;;10.60;100.00;101840.94;5041066;28;20190;-69
2023/05/07 05:47:13;;;;;;;14.10;12.67;;;;;;;10.48;100.00;101813.69;5025018;28;20203;-68
2023/05/07 05:49:39;;;;;;;16.80;12.63;;;;;;;10.69;100.00;101844.44;5040013;28;20566;-69
2023/05/07 05:52:07;;;;;;;13.87;12.27;;;;;;;10.62;100.00;101853.19;5026489;28;20522;-69
2023/05/07 05:54:36;;;;;;;14.60;13.10;;;;;;;10.05;100.00;101775.59;5025095;28;20234;-69
2023/05/07 05:57:03;;;;;;;14.20;12.60;;;;;;;10.58;100.00;101859.88;5025056;28;20541;-69
2023/05/07 05:59:35;;;;;;;14.47;12.97;;;;;;;10.16;100.00;101831.53;5036994;28;20435;-69
2023/05/07 06:02:00;;;;;;;14.80;13.30;;;;;;;10.37;100.00;101846.22;5038671;28;20529;-68
2023/05/07 06:04:26;;;;;;;17.20;13.50;;;;;;;10.14;100.00;101808.56;5023537;28;20518;-68
2023/05/07 06:06:55;;;;;;;16.33;12.73;;;;;;;10.25;100.00;101824.28;5025130;28;20742;-69
2023/05/07 06:09:20;;;;;;;14.33;12.80;;;;;;;9.98;100.00;101766.59;5026776;28;20198;-69
2023/05/07 06:11:49;;;;;;;13.90;12.30;;;;;;;9.92;100.00;101760.06;5042886;28;20807;-69
2023/05/07 06:14:15;;;;;;;13.53;11.00;;;;;;;10.18;100.00;101821.47;5025082;28;20202;-69
2023/05/07 06:16:43;;;;;;;12.90;11.57;;;;;;;9.20;100.00;101662.75;5041201;28;20509;-68
2023/05/07 06:19:09;;;;;;;12.27;11.03;;;;;;;10.52;100.00;101886.59;5040615;28;20573;-70
2023/05/07 06:21:34;;;;;;;14.50;11.97;;;;;;;10.35;100.00;101861.66;5016757;28;20449;-69
2023/05/07 06:24:00;;;;;;;13.17;11.30;;;;;;;10.21;100.00;101840.88;5031140;28;20234;-69
2023/05/07 06:26:26;;;;;;;13.83;11.20;;;;;;;10.38;100.00;101882.75;5024200;28;20584;-69
2023/05/07 06:28:51;;;;;;;12.60;11.20;;;;;;;10.32;100.00;101825.28;5025282;28;20184;-69
2023/05/07 06:31:20;;;;;;;11.53;10.23;;;;;;;10.37;100.00;101830.16;5019571;28;20203;-70
2023/05/07 06:33:49;;;;;;;12.73;11.30;;;;;;;10.11;100.00;101803.56;5039157;28;20243;-69
2023/05/07 06:36:18;;;;;;;11.67;10.30;;;;;;;9.87;100.00;101756.22;5020684;28;20458;-69
2023/05/07 06:38:44;;;;;;;11.60;10.23;;;;;;;10.57;100.00;101850.19;5024868;28;20452;-69
2023/05/07 06:41:09;;;;;;;13.30;10.17;;;;;;;10.72;100.00;101868.22;5024915;28;20525;-69
2023/05/07 06:43:35;;;;;;;11.87;9.90;;;;;;;10.53;100.00;101867.66;5022476;28;20186;-69
2023/05/07 06:46:01;;;;;;;11.37;10.17;;;;;;;10.37;100.00;101824.78;5039356;28;20230;-69
2023/05/07 06:48:27;;;;;;;13.80;10.47;;;;;;;10.74;100.00;101876.97;5022901;28;20966;-69
2023/05/07 06:51:11;;;;;;;11.20;9.17;;;;;;;10.54;100.00;101845.16;5023405;28;20553;-69
2023/05/07 06:53:37;;;;;;;10.40;9.07;;;;;;;10.45;100.00;101826.59;5020274;28;20247;-70
2023/05/07 06:56:05;;;;;;;10.93;9.40;;;;;;;10.41;100.00;101815.38;5038513;28;20950;-67
2023/05/07 06:58:30;;;;;;;12.37;10.33;;;;;;;10.62;100.00;101863.09;5022090;28;20253;-69
2023/05/07 07:00:56;;;;;;;12.33;10.13;;;;;;;10.47;100.00;101846.03;5036688;28;20947;-69
2023/05/07 07:03:21;;;;;;;11.80;9.60;;;;;;;10.37;100.00;101793.44;5022761;28;20571;-69
2023/05/07 07:05:47;;;;;;;10.93;9.40;;;;;;;10.85;100.00;101873.88;5034756;28;20212;-69
2023/05/07 07:08:12;;;;;;;11.60;10.40;;;;;;;10.91;100.00;101846.34;5034902;28;20198;-69
2023/05/07 07:10:38;;;;;;;11.40;9.87;;;;;;;10.96;100.00;101864.59;5038309;28;20212;-69
2023/05/07 07:13:03;;;;;;;10.93;9.43;;;;;;;10.89;100.00;101864.47;5025193;28;20200;-69
2023/05/07 07:15:29;;;;;;;11.70;9.80;;;;;;;10.90;100.00;101855.38;5043111;28;20203;-69
2023/05/07 07:17:54;;;;;;;10.37;9.37;;;;;;;10.96;100.00;101860.03;5042034;28;20578;-69
2023/05/07 07:20:19;;;;;;;10.33;9.33;;;;;;;10.98;100.00;101868.78;5043438;28;20191;-69
2023/05/07 07:22:45;;;;;;;9.87;8.83;;;;;;;11.02;100.00;101864.72;5037264;28;20277;-69
2023/05/07 07:25:11;;;;;;;10.27;9.23;;;;;;;10.86;100.00;101836.13;5033122;28;20192;-68
2023/05/07 07:27:37;;;;;;;11.70;10.00;;;;;;;10.83;100.00;101830.28;5012221;28;20273;-68
2023/05/07 07:30:03;;;;;;;13.57;10.00;;;;;;;10.70;100.00;101832.69;5021006;28;20455;-68
2023/05/07 07:32:36;;;;;;;9.17;8.27;;;;;;;11.10;100.00;101863.81;5033674;28;20200;-70
2023/05/07 07:35:02;;;;;;;12.30;9.10;;;;;;;11.08;100.00;101863.19;5021530;28;20437;-68
2023/05/07 07:37:28;;;;;;;12.87;10.13;;;;;;;11.10;100.00;101863.81;5026693;28;20458;-69
2023/05/07 07:39:54;;;;;;;12.23;9.97;;;;;;;11.18;100.00;101865.63;5023189;28;20180;-68
2023/05/07 07:42:19;;;;;;;10.10;8.97;;;;;;;11.09;100.00;101863.00;5040715;28;20942;-68
2023/05/07 07:44:45;;;;;;;10.67;9.57;;;;;;;11.19;100.00;101865.44;5037713;28;20322;-68
2023/05/07 07:47:10;;;;;;;11.10;10.00;;;;;;;11.23;100.00;101845.28;5036049;28;20199;-68
2023/05/07 07:49:36;;;;;;;11.50;9.90;;;;;;;10.96;100.00;101843.09;5036775;28;20195;-68
2023/05/07 07:52:01;;;;;;;14.50;11.00;;;;;;;10.94;100.00;101839.78;5019782;28;20257;-68
2023/05/07 07:54:27;;;;;;;12.77;10.63;;;;;;;11.13;100.00;101858.09;5020257;28;20191;-68
2023/05/07 07:56:52;;;;;;;12.40;9.43;;;;;;;11.03;100.00;101839.53;5027644;28;20545;-69
2023/05/07 07:59:21;;;;;;;9.83;8.67;;;;;;;10.70;100.00;101803.16;5040986;28;20204;-69
2023/05/07 08:01:49;;;;;;;11.93;10.17;;;;;;;11.18;100.00;101849.53;5022876;28;20242;-69
2023/05/07 08:04:21;;;;;;;10.50;9.37;;;;;;;10.85;100.00;101804.94;5039543;28;20443;-73
2023/05/07 08:06:47;;;;;;;11.00;9.80;;;;;;;11.15;100.00;101866.00;5023809;28;20560;-69
2023/05/07 08:09:12;;;;;;;10.97;9.10;;;;;;;10.88;100.00;101825.22;5034152;28;21006;-68
2023/05/07 08:11:41;;;;;;;9.77;8.87;;;;;;;11.00;100.00;101829.16;5034942;28;20210;-68
2023/05/07 08:14:06;;;;;;;9.90;8.63;;;;;;;11.34;100.00;101873.59;5036328;28;20188;-69
2023/05/07 08:16:32;;;;;;;10.90;9.80;;;;;;;11.15;100.00;101884.78;5034155;28;20471;-70
2023/05/07 08:18:57;;;;;;;11.60;9.33;;;;;;;11.00;100.00;101823.78;5038293;28;20188;-68
2023/05/07 08:21:23;;;;;;;10.60;9.60;;;;;;;11.10;100.00;101831.59;5036196;28;20188;-68
2023/05/07 08:23:49;;;;;;;12.00;9.20;;;;;;;11.11;100.00;101822.56;5036313;28;20650;-69
2023/05/07 08:26:24;;;;;;;10.00;9.00;;;;;;;11.00;100.00;101823.78;5020541;28;20267;-69
2023/05/07 08:28:49;;;;;;;10.27;9.17;;;;;;;11.27;100.00;101851.97;5035086;28;20188;-69
2023/05/07 08:31:15;;;;;;;12.57;9.40;;;;;;;11.23;100.00;101847.16;5023865;28;21100;-69
2023/05/07 08:33:43;;;;;;;10.90;8.93;;;;;;;11.07;100.00;101858.81;5033695;28;20222;-70
2023/05/07 08:36:12;;;;;;;11.33;8.53;;;;;;;11.24;100.00;101868.44;5039489;28;20250;-69
2023/05/07 08:38:37;;;;;;;11.10;9.07;;;;;;;11.34;100.00;101878.97;5042012;28;20521;-67
2023/05/07 08:41:03;;;;;;;9.93;8.93;;;;;;;11.20;100.00;101848.34;5033977;28;20943;-69
2023/05/07 08:43:32;;;;;;;10.20;8.63;;;;;;;11.30;100.00;101845.41;5041706;28;20186;-68
2023/05/07 08:46:02;;;;;;;10.27;8.60;;;;;;;11.47;100.00;101857.69;5039204;28;20215;-68
2023/05/07 08:48:33;;;;;;;10.10;9.00;;;;;;;11.64;100.00;101869.16;5035920;28;20524;-68
2023/05/07 08:50:59;;;;;;;8.93;7.97;;;;;;;11.57;100.00;101875.41;5041008;28;20477;-69
2023/05/07 08:53:31;;;;;;;9.37;8.47;;;;;;;11.11;100.00;101814.50;5020266;28;20450;-69
2023/05/07 08:55:58;;;;;;;9.17;8.27;;;;;;;11.62;100.00;101870.34;5021999;28;20525;-68
2023/05/07 08:58:23;;;;;;;10.33;9.23;;;;;;;11.38;100.00;101868.69;5035154;28;20441;-68
2023/05/07 09:00:51;;;;;;;10.27;9.20;;;;;;;11.62;100.00;101868.50;5034864;28;20988;-68
2023/05/07 09:03:17;;;;;;;9.70;8.70;;;;;;;11.40;100.00;101861.28;5031732;28;20657;-68
2023/05/07 09:05:43;;;;;;;9.00;8.10;;;;;;;11.57;100.00;101867.38;5036567;28;20474;-68
2023/05/07 09:08:09;;;;;;;9.80;8.80;;;;;;;11.69;100.00;101847.97;5035755;28;20317;-68
2023/05/07 09:10:35;;;;;;;9.10;8.20;;;;;;;11.74;100.00;101853.63;5019428;28;20458;-68
2023/05/07 09:13:00;;;;;;;9.87;8.60;;;;;;;11.23;100.00;101801.50;5037425;28;20189;-68
2023/05/07 09:15:28;;;;;;;9.63;8.63;;;;;;;11.61;100.00;101836.44;5023314;28;20296;-68
2023/05/07 09:17:53;;;;;;;8.43;7.63;;;;;;;11.68;100.00;101851.66;5034619;28;20184;-68
2023/05/07 09:20:19;;;;;;;10.20;8.03;;;;;;;11.63;100.00;101846.00;5021264;28;20438;-68
2023/05/07 09:22:45;;;;;;;10.60;8.70;;;;;;;11.64;100.00;101853.03;5035590;28;20188;-68
2023/05/07 09:25:10;;;;;;;9.60;8.33;;;;;;;11.63;100.00;101843.31;5022271;28;20266;-68
2023/05/07 09:27:36;;;;;;;9.77;8.77;;;;;;;11.70;100.00;101859.53;5019647;28;20534;-68
2023/05/07 09:30:06;;;;;;;9.23;8.00;;;;;;;11.69;100.00;101847.13;5033623;28;20273;-68
2023/05/07 09:32:34;;;;;;;10.77;9.77;;;;;;;11.60;100.00;101850.88;5033432;28;20193;-68
2023/05/07 09:35:00;;;;;;;10.17;8.97;;;;;;;11.83;100.00;101851.72;5036713;28;20820;-68
2023/05/07 09:37:26;;;;;;;8.47;7.67;;;;;;;11.92;100.00;101825.59;5040432;28;20449;-69
2023/05/07 09:39:52;;;;;;;9.17;8.03;;;;;;;12.01;100.00;101829.88;5021351;28;20199;-68
2023/05/07 09:42:26;;;;;;;10.50;9.40;;;;;;;12.15;100.00;101839.81;5037052;28;20817;-68
2023/05/07 09:44:52;;;;;;;9.73;8.73;;;;;;;12.19;100.00;101818.75;5027161;28;20625;-69
2023/05/07 09:47:24;;;;;;;9.73;8.37;;;;;;;12.50;100.00;101833.84;5015833;28;20473;-69
2023/05/07 09:49:50;;;;;;;8.53;7.73;;;;;;;12.59;100.00;101838.97;5023043;28;20203;-69
2023/05/07 09:52:16;;;;;;;9.60;8.60;;;;;;;12.60;100.00;101839.78;5026071;28;20450;-68
2023/05/07 09:54:43;;;;;;;10.17;9.17;;;;;;;12.59;100.00;101806.66;5032440;28;20434;-68
2023/05/07 09:57:11;;;;;;;9.40;8.40;;;;;;;12.79;100.00;101825.75;5028464;28;20454;-69
2023/05/07 09:59:38;;;;;;;7.80;7.10;;;;;;;13.02;100.00;101830.97;5029478;28;20517;-69
2023/05/07 10:02:04;;;;;;;8.97;8.10;;;;;;;13.16;100.00;101825.72;5027930;28;20484;-69
2023/05/07 10:04:31;;;;;;;7.53;6.83;;;;;;;13.05;100.00;101800.13;5021928;28;20458;-69
2023/05/07 10:06:58;;;;;;;8.90;7.60;;;;;;;12.92;100.00;101805.38;5041393;28;20858;-69
2023/05/07 10:09:25;;;;;;;8.40;6.93;;;;;;;13.11;100.00;101818.22;5023949;28;20438;-70
2023/05/07 10:11:52;;;;;;;6.77;6.10;;;;;;;13.12;100.00;101819.88;5038856;28;20441;-69
2023/05/07 10:14:20;;;;;;;7.93;7.23;;;;;;;13.23;100.00;101813.16;5033975;28;20531;-69
2023/05/07 10:16:47;;;;;;;7.70;6.90;;;;;;;13.31;100.00;101816.59;5021563;28;20465;-70
2023/05/07 10:19:14;;;;;;;8.53;7.63;;;;;;;13.50;100.00;101804.28;5037392;28;20523;-69
2023/05/07 10:21:48;;;;;;;7.50;6.80;;;;;;;13.70;100.00;101790.16;5028780;28;20632;-69
2023/05/07 10:24:21;;;;;;;8.10;7.33;;;;;;;13.78;100.00;101800.78;5037424;28;20525;-69
2023/05/07 10:26:51;;;;;;;8.60;7.30;;;;;;;13.73;100.00;101770.88;5032707;28;20975;-68
2023/05/07 10:29:50;;;;;;;8.97;8.10;;;;;;;13.80;100.00;101796.03;5037470;28;20526;-69
2023/05/07 10:32:42;;;;;;;9.57;7.80;;;;;;;14.09;100.00;101788.72;5028108;28;20549;-68
2023/05/07 10:35:29;;;;;;;9.77;8.27;;;;;;;14.07;100.00;101785.41;5033056;28;20438;-69
2023/05/07 10:37:54;;;;;;;7.57;6.83;;;;;;;14.16;100.00;101781.53;5038482;28;20496;-70
2023/05/07 10:40:21;;;;;;;7.57;6.83;;;;;;;14.32;100.00;101807.31;5014792;28;20434;-69
2023/05/07 10:43:00;;;;;;;9.10;7.43;;;;;;;14.30;100.00;101814.81;5035417;28;20241;-68
2023/05/07 10:45:26;;;;;;;8.27;7.47;;;;;;;14.07;100.00;101815.09;5019353;28;20460;-68
2023/05/07 10:48:10;;;;;;;8.30;7.50;;;;;;;14.31;100.00;101801.09;5032542;28;20499;-69
2023/05/07 10:50:47;;;;;;;8.47;7.67;;;;;;;14.06;100.00;101811.56;5036940;28;20511;-68
2023/05/07 10:53:16;;;;;;;9.00;7.50;;;;;;;14.37;100.00;101802.16;5024524;28;20593;-68
2023/05/07 10:55:41;;;;;;;6.23;5.73;;;;;;;14.53;100.00;101804.56;5038372;28;20507;-69
2023/05/07 10:58:26;;;;;;;7.80;7.00;;;;;;;14.68;100.00;101802.53;5041933;28;20462;-69
2023/05/07 11:01:00;;;;;;;9.03;7.97;;;;;;;14.30;100.00;101775.16;5041107;28;20180;-69
2023/05/07 11:03:26;;;;;;;8.50;7.00;;;;;;;14.73;100.00;101801.13;5039942;28;20519;-69
2023/05/07 11:06:13;;;;;;;9.10;8.30;;;;;;;14.88;100.00;101805.31;5042978;28;20447;-69